createdAt,value
2023-03-23T15:58:11.622Z,100413.97
2023-03-23T16:00:40.022Z,100398.75
2023-03-23T16:03:12.351Z,100407.75
2023-03-23T16:05:39.519Z,100410.94
2023-03-23T16:08:06.385Z,100412.69
2023-03-23T16:10:32.850Z,100408.69
2023-03-23T16:12:59.365Z,100405.63
2023-03-23T16:15:26.096Z,100417.88
2023-03-23T16:17:52.619Z,100409.97
2023-03-23T16:20:21.606Z,100404.91
2023-03-23T16:22:49.439Z,100407.00
2023-03-23T16:25:16.148Z,100407.22
2023-03-23T16:27:43.259Z,100407.41
2023-03-23T16:30:22.322Z,100399.28
2023-03-23T16:32:48.768Z,100401.28
2023-03-23T16:35:16.168Z,100413.66
2023-03-23T16:37:50.653Z,100413.91
2023-03-23T16:40:19.136Z,100420.13
2023-03-23T16:42:45.760Z,100430.63
2023-03-23T16:45:13.827Z,100431.53
2023-03-23T16:47:41.142Z,100426.56
2023-03-23T16:50:12.997Z,100419.28
2023-03-23T16:52:46.169Z,100409.28
2023-03-23T16:55:17.045Z,100407.00
2023-03-23T16:57:43.868Z,100399.38
2023-03-23T17:00:16.231Z,100413.06
2023-03-23T17:02:43.706Z,100413.16
2023-03-23T17:05:14.540Z,100408.84
2023-03-23T17:07:42.214Z,100410.59
2023-03-23T17:10:10.645Z,100422.63
2023-03-23T17:12:37.487Z,100428.00
2023-03-23T17:15:04.760Z,100411.06
2023-03-23T17:17:32.045Z,100418.09
2023-03-23T17:19:58.648Z,100420.84
2023-03-23T17:22:26.243Z,100414.19
2023-03-23T17:24:54.698Z,100409.31
2023-03-23T17:27:22.191Z,100400.97
2023-03-23T17:29:48.778Z,100402.78
2023-03-23T17:32:15.631Z,100409.81
2023-03-23T17:34:42.560Z,100415.22
2023-03-23T17:37:10.799Z,100411.06
2023-03-23T17:39:43.217Z,100405.31
2023-03-23T17:42:10.916Z,100405.53
2023-03-23T17:44:38.652Z,100394.66
2023-03-23T17:47:05.954Z,100392.31
2023-03-23T17:49:32.600Z,100389.03
2023-03-23T17:51:59.838Z,100390.88
2023-03-23T17:54:42.022Z,100376.41
2023-03-23T17:57:09.167Z,100386.88
2023-03-23T17:59:35.795Z,100397.28
2023-03-23T18:02:02.491Z,100396.59
2023-03-23T18:05:10.761Z,100393.38
2023-03-23T18:07:37.652Z,100378.22
2023-03-23T18:10:11.758Z,100376.66
2023-03-23T18:12:40.199Z,100376.81
2023-03-23T18:15:07.395Z,100365.00
2023-03-23T18:17:33.997Z,100369.31
2023-03-23T18:20:00.586Z,100366.94
2023-03-23T18:22:27.100Z,100376.44
2023-03-23T18:24:54.244Z,100379.91
2023-03-23T18:27:20.884Z,100370.63
2023-03-23T18:29:47.489Z,100369.88
2023-03-23T18:32:14.041Z,100370.69
2023-03-23T18:34:41.793Z,100369.88
2023-03-23T18:37:09.343Z,100358.00
2023-03-23T18:39:37.029Z,100359.75
2023-03-23T18:42:04.356Z,100372.66
2023-03-23T18:44:30.880Z,100364.88
2023-03-23T18:46:57.387Z,100357.22
2023-03-23T18:49:23.935Z,100360.03
2023-03-23T18:51:50.398Z,100351.72
2023-03-23T18:54:17.803Z,100352.69
2023-03-23T18:56:44.398Z,100341.88
2023-03-23T18:59:11.157Z,100343.00
2023-03-23T19:01:37.745Z,100333.81
2023-03-23T19:04:06.827Z,100335.66
2023-03-23T19:06:35.206Z,100334.97
2023-03-23T19:09:01.917Z,100329.97
2023-03-23T19:11:28.490Z,100334.41
2023-03-23T19:14:02.090Z,100328.72
2023-03-23T19:16:35.676Z,100326.31
2023-03-23T19:19:03.623Z,100317.91
2023-03-23T19:21:32.015Z,100318.97
2023-03-23T19:23:59.263Z,100317.44
2023-03-23T19:26:46.465Z,100308.22
2023-03-23T19:29:26.548Z,100303.13
2023-03-23T19:31:55.465Z,100297.31
2023-03-23T19:34:23.777Z,100299.13
2023-03-23T19:36:55.121Z,100290.72
2023-03-23T19:39:26.709Z,100302.72
2023-03-23T19:41:53.218Z,100285.72
2023-03-23T19:44:20.430Z,100285.81
2023-03-23T19:46:48.311Z,100289.34
2023-03-23T19:49:14.955Z,100283.41
2023-03-23T19:51:41.469Z,100288.66
2023-03-23T19:54:08.911Z,100281.91
2023-03-23T19:56:36.174Z,100279.34
2023-03-23T19:59:03.361Z,100282.78
2023-03-23T20:01:29.928Z,100279.34
2023-03-23T20:04:00.034Z,100276.03
2023-03-23T20:06:29.253Z,100272.84
2023-03-23T20:08:56.645Z,100273.59
2023-03-23T20:11:23.305Z,100275.41
2023-03-23T20:13:50.718Z,100276.38
2023-03-23T20:16:18.719Z,100273.19
2023-03-23T20:18:47.383Z,100274.84
2023-03-23T20:21:18.967Z,100266.38
2023-03-23T20:23:46.879Z,100269.09
2023-03-23T20:26:17.096Z,100270.06
2023-03-23T20:28:45.587Z,100257.38
2023-03-23T20:31:23.539Z,100263.47
2023-03-23T20:34:00.648Z,100260.13
2023-03-23T20:36:35.145Z,100251.66
2023-03-23T20:39:08.200Z,100241.44
2023-03-23T20:41:38.843Z,100249.13
2023-03-23T20:44:08.864Z,100244.97
2023-03-23T20:46:36.029Z,100243.34
2023-03-23T20:49:03.041Z,100232.22
2023-03-23T20:51:29.798Z,100234.78
2023-03-23T20:53:56.554Z,100230.50
2023-03-23T20:56:24.481Z,100222.03
2023-03-23T20:58:51.313Z,100224.69
2023-03-23T21:01:17.931Z,100228.06
2023-03-23T21:03:44.952Z,100218.69
2023-03-23T21:06:11.978Z,100214.50
2023-03-23T21:08:40.804Z,100211.06
2023-03-23T21:11:09.893Z,100212.81
2023-03-23T21:13:36.861Z,100196.59
2023-03-23T21:16:04.312Z,100203.44
2023-03-23T21:18:31.807Z,100194.94
2023-03-23T21:21:00.365Z,100190.69
2023-03-23T21:23:29.880Z,100184.78
2023-03-23T21:26:02.035Z,100179.66
2023-03-23T21:28:28.604Z,100171.16
2023-03-23T21:30:59.274Z,100164.34
2023-03-23T21:33:26.914Z,100153.28
2023-03-23T21:35:53.819Z,100151.53
2023-03-23T21:38:26.038Z,100145.66
2023-03-23T21:40:54.292Z,100146.47
2023-03-23T21:43:27.712Z,100139.66
2023-03-23T21:45:57.310Z,100139.75
2023-03-23T21:48:25.239Z,100137.25
2023-03-23T21:50:52.333Z,100133.03
2023-03-23T21:53:19.703Z,100133.03
2023-03-23T21:55:55.625Z,100129.63
2023-03-23T21:58:24.800Z,100126.31
2023-03-23T22:00:54.185Z,100123.72
2023-03-23T22:03:25.363Z,100111.75
2023-03-23T22:06:15.194Z,100114.25
2023-03-23T22:08:43.838Z,100114.25
2023-03-23T22:11:14.722Z,100117.63
2023-03-23T22:13:42.375Z,100110.00
2023-03-23T22:16:11.690Z,100108.34
2023-03-23T22:18:39.499Z,100101.63
2023-03-23T22:21:07.484Z,100100.81
2023-03-23T22:23:34.919Z,100105.16
2023-03-23T22:26:27.758Z,100104.34
2023-03-23T22:28:55.435Z,100089.03
2023-03-23T22:31:25.426Z,100087.44
2023-03-23T22:34:07.583Z,100089.22
2023-03-23T22:36:34.412Z,100083.44
2023-03-23T22:39:01.591Z,100086.03
2023-03-23T22:41:31.119Z,100077.53
2023-03-23T22:44:02.088Z,100071.63
2023-03-23T22:46:29.260Z,100058.88
2023-03-23T22:48:56.046Z,100064.97
2023-03-23T22:51:22.806Z,100055.78
2023-03-23T22:53:50.110Z,100047.34
2023-03-23T22:56:17.264Z,100044.06
2023-03-23T22:58:43.925Z,100039.03
2023-03-23T23:01:19.837Z,100038.25
2023-03-23T23:03:47.140Z,100035.69
2023-03-23T23:06:14.929Z,100026.31
2023-03-23T23:08:41.713Z,100034.88
2023-03-23T23:11:12.140Z,100030.56
2023-03-23T23:13:39.967Z,100018.63
2023-03-23T23:16:51.872Z,100014.44
2023-03-23T23:19:18.513Z,100021.19
2023-03-23T23:21:45.068Z,100017.00
2023-03-23T23:24:21.949Z,100011.88
2023-03-23T23:26:48.533Z,100003.41
2023-03-23T23:29:15.145Z,100001.66
2023-03-23T23:31:42.086Z,100001.75
2023-03-23T23:34:12.589Z,99999.19
2023-03-23T23:36:40.681Z,99993.97
2023-03-23T23:39:07.272Z,99993.16
2023-03-23T23:41:35.755Z,99975.22
2023-03-23T23:44:04.974Z,99973.47
2023-03-23T23:46:32.009Z,99968.34
2023-03-23T23:48:59.547Z,99968.31
2023-03-23T23:51:27.529Z,99968.31
2023-03-23T23:53:58.970Z,99966.63
2023-03-23T23:56:25.940Z,99957.19
2023-03-23T23:58:52.556Z,99958.06
